Latest Weather Observations for Pirlangimpi

IDD60901

Issued at 12:11 pm CST Saturday 13 February 2016 (issued every 10 minutes, with the page automatically refreshed every 10 minutes)

About weather observations | Map of Darwin area stations | Latest observations for Darwin area | Other Formats
Station Details ID: 014142 Name: PIRLANGIMPI AIRPORT Lat: -11.40 Lon: 130.42 Height: 18.3 m
Data from the previous 72 hours. | See also: Recent months at Pirlangimpi
Date/Time
CST
Tmp

°C
App
Tmp
°C
Dew
Point
°C
Rel
Hum
%
Delta-T

°C
Wind Press
QNH
hPa
Press
MSL
hPa
Rain
since
9 am
mm
Dir
 
Spd
km/h
Gust
km/h
Spd
kts
Gust
kts
13/12:00pm 28.3 32.2 23.0 73 3.6 SSW 7 11 4 6 1009.6 1009.5 0.0
13/11:30am 28.5 32.4 23.6 75 3.4 S 9 13 5 7 1010.0 1009.9 0.0
13/11:00am 27.4 30.5 23.6 80 2.6 SSW 13 17 7 9 1010.5 1010.4 0.0
13/10:30am 26.7 31.0 23.6 83 2.1 SSW 7 11 4 6 1010.7 1010.6 0.0
13/10:00am 26.4 30.0 23.7 85 1.9 SSE 11 17 6 9 1011.0 1010.9 0.0
13/09:30am 26.4 29.6 23.7 85 1.9 SSE 13 24 7 13 1010.9 1010.8 0.0
13/09:00am 28.6 32.3 25.2 82 2.4 S 15 32 8 17 1010.7 1010.6 71.6
13/08:30am 29.1 35.1 26.3 85 2.0 SSW 7 9 4 5 1010.2 1010.1 71.6
13/08:00am 28.5 34.7 26.3 88 1.6 SSW 6 7 3 4 1010.0 1009.9 71.6
13/07:30am 28.4 34.7 26.0 87 1.7 SW 4 7 2 4 1009.7 1009.6 71.6
13/07:00am 28.1 34.2 25.7 87 1.7 SW 4 6 2 3 1008.7 1008.6 71.6
13/06:30am 28.1 33.9 25.7 87 1.7 SW 6 9 3 5 1008.1 1008.0 71.6
13/06:00am 27.9 34.2 25.9 89 1.4 SW 4 7 2 4 1007.7 1007.6 71.6
13/05:30am 27.8 34.1 26.0 90 1.3 SW 4 7 2 4 1007.7 1007.6 71.6
13/05:00am 27.5 34.2 25.9 91 1.1 WSW 2 7 1 4 1007.5 1007.4 71.6
13/04:30am 27.6 34.2 25.8 90 1.3 SW 2 6 1 3 1007.3 1007.2 71.6
13/04:00am 27.6 33.8 25.8 90 1.3 SSW 4 7 2 4 1007.0 1006.9 71.6
13/03:30am 27.9 34.2 25.9 89 1.4 WSW 4 7 2 4 1007.0 1006.9 71.6
13/03:00am 27.6 34.3 26.0 91 1.1 W 2 7 1 4 1007.2 1007.1 71.6
13/02:30am 27.1 33.9 25.5 91 1.1 CALM 0 4 0 2 1007.6 1007.5 71.6
13/02:00am 27.0 33.3 25.4 91 1.1 WSW 2 6 1 3 1008.0 1007.9 71.6
13/01:30am 27.1 33.7 25.3 90 1.3 CALM 0 0 0 0 1008.2 1008.1 71.6
13/01:00am 27.6 34.2 25.2 87 1.7 CALM 0 0 0 0 1008.6 1008.5 71.6
13/12:30am 28.3 34.3 25.5 85 2.0 WSW 4 7 2 4 1008.9 1008.8 71.6
13/12:00am 28.3 34.4 25.7 86 1.8 W 4 7 2 4 1009.1 1009.0 71.6
 
Date/Time
CST
Tmp

°C
App
Tmp
°C
Dew
Point
°C
Rel
Hum
%
Delta-T

°C
Wind Press
QNH
hPa
Press
MSL
hPa
Rain
since
9 am
mm
Dir
 
Spd
km/h
Gust
km/h
Spd
kts
Gust
kts
12/11:30pm 28.2 34.4 25.8 87 1.7 W 4 9 2 5 1009.4 1009.3 71.6
12/11:00pm 28.2 35.0 26.2 89 1.4 WSW 2 7 1 4 1009.2 1009.1 71.6
12/10:30pm 28.1 34.8 25.9 88 1.6 W 2 4 1 2 1009.2 1009.1 71.6
12/10:00pm 28.2 34.4 25.8 87 1.7 WSW 4 6 2 3 1009.0 1008.9 71.6
12/09:30pm 28.3 35.0 25.9 87 1.7 SW 2 4 1 2 1008.7 1008.6 71.6
12/09:00pm 28.5 34.8 25.9 86 1.8 WSW 4 7 2 4 1008.4 1008.3 71.6
12/08:30pm 28.6 34.8 25.8 85 2.0 W 4 7 2 4 1008.2 1008.1 71.6
12/08:00pm 28.9 35.4 25.7 83 2.3 W 2 6 1 3 1008.1 1008.0 71.6
12/07:30pm 29.2 35.3 25.6 81 2.5 W 4 7 2 4 1007.4 1007.3 71.6
12/07:00pm 29.6 35.2 25.4 78 3.0 WSW 6 9 3 5 1007.2 1007.1 71.6
12/06:30pm 30.4 36.4 25.5 75 3.5 W 4 9 2 5 1006.8 1006.7 71.6
12/06:00pm 31.2 36.7 25.3 71 4.2 WNW 6 11 3 6 1006.5 1006.4 71.6
12/05:30pm 31.6 37.3 25.0 68 4.7 NW 4 9 2 5 1006.0 1005.9 71.6
12/05:00pm 31.1 35.9 24.2 66 4.8 NNW 6 9 3 5 1005.7 1005.6 71.6
12/04:30pm 30.4 35.0 24.1 69 4.4 NW 7 13 4 7 1005.8 1005.7 71.6
12/04:00pm 29.4 34.3 24.3 74 3.5 NW 6 13 3 7 1006.0 1005.9 71.6
12/03:30pm 29.0 34.4 25.4 81 2.5 NW 7 13 4 7 1006.6 1006.5 71.6
12/03:00pm 27.8 33.1 25.2 86 1.8 NW 7 13 4 7 1007.4 1007.3 71.6
12/02:30pm 26.8 32.0 24.8 89 1.4 NW 6 11 3 6 1007.6 1007.5 71.6
12/02:00pm 25.3 30.2 24.3 94 0.7 NNW 6 9 3 5 1008.1 1008.0 71.6
12/01:30pm 25.0 30.1 24.1 95 0.6 NW 4 9 2 5 1008.5 1008.4 71.6
12/01:00pm 24.8 29.5 23.9 95 0.6 NNW 6 11 3 6 1008.5 1008.4 71.4
12/12:30pm 24.9 30.1 24.2 96 0.5 NNW 4 6 2 3 1008.8 1008.7 70.8
12/12:00pm 24.9 29.9 23.9 94 0.7 N 4 7 2 4 1009.8 1009.7 58.0
12/11:30am 26.1 29.5 24.7 92 1.0 S 15 22 8 12 1009.4 1009.3 11.0
12/11:00am 28.0 34.1 25.6 87 1.7 NW 4 9 2 5 1008.9 1008.8 5.4
12/10:30am 27.5 33.5 25.5 89 1.4 NNE 4 7 2 4 1009.1 1009.0 5.2
12/10:00am 26.3 30.9 24.2 88 1.4 ENE 7 13 4 7 1009.6 1009.5 5.2
12/09:30am 29.9 34.2 23.3 67 4.5 WSW 6 19 3 10 1009.5 1009.4 0.0
12/09:00am 30.5 37.1 26.4 79 2.9 NW 4 7 2 4 1009.4 1009.3 6.2
12/08:30am 29.6 36.4 26.2 82 2.4 WNW 2 7 1 4 1009.4 1009.3 6.2
12/08:00am 28.6 35.4 26.2 87 1.7 NW 2 6 1 3 1009.0 1008.9 6.2
12/07:30am 27.8 34.8 26.4 92 1.0 WSW 2 4 1 2 1008.5 1008.4 6.2
12/07:00am 27.1 33.5 25.5 91 1.1 SSW 2 4 1 2 1008.1 1008.0 6.2
12/06:30am 26.7 32.8 25.1 91 1.1 WNW 2 6 1 3 1007.9 1007.8 6.2
12/06:00am 26.7 32.6 24.7 89 1.4 W 2 7 1 4 1007.7 1007.6 6.2
12/05:30am 26.3 32.1 24.5 90 1.2 SW 2 4 1 2 1007.2 1007.1 6.2
12/05:00am 26.2 32.2 24.2 89 1.4 CALM 0 0 0 0 1007.1 1007.0 6.2
12/04:30am 26.2 31.9 24.4 90 1.2 WSW 2 6 1 3 1007.0 1006.9 6.2
12/04:00am 25.8 31.6 24.6 93 0.8 WNW 2 6 1 3 1007.0 1006.9 6.2
12/03:30am 25.2 31.2 24.2 94 0.7 CALM 0 4 0 2 1006.9 1006.8 6.2
12/03:00am 25.3 31.2 24.1 93 0.8 CALM 0 0 0 0 1006.9 1006.8 6.2
12/02:30am 25.5 30.8 24.3 93 0.8 SW 4 6 2 3 1007.2 1007.1 6.2
12/02:00am 25.3 31.5 24.6 96 0.5 CALM 0 0 0 0 1007.5 1007.4 6.2
12/01:30am 24.4 29.9 23.4 94 0.7 CALM 0 0 0 0 1008.0 1007.9 6.2
12/01:00am 24.4 28.8 23.4 94 0.7 NW 6 7 3 4 1007.9 1007.8 6.2
12/12:30am 25.1 27.5 23.0 88 1.4 SE 15 26 8 14 1009.0 1008.9 6.0
12/12:00am 29.0 35.6 26.4 86 1.9 SSW 4 6 2 3 1009.1 1009.0 0.0
 
Date/Time
CST
Tmp

°C
App
Tmp
°C
Dew
Point
°C
Rel
Hum
%
Delta-T

°C
Wind Press
QNH
hPa
Press
MSL
hPa
Rain
since
9 am
mm
Dir
 
Spd
km/h
Gust
km/h
Spd
kts
Gust
kts
11/11:30pm 29.0 35.8 26.2 85 2.0 WSW 2 6 1 3 1008.8 1008.7 0.0
11/11:00pm 28.9 35.3 26.1 85 2.0 W 4 7 2 4 1008.6 1008.5 0.0
11/10:30pm 29.1 35.9 26.1 84 2.1 W 2 4 1 2 1008.6 1008.5 0.0
11/10:00pm 29.1 35.9 26.1 84 2.1 W 2 6 1 3 1008.3 1008.2 0.0
11/09:30pm 29.3 35.7 26.1 83 2.3 WSW 4 7 2 4 1008.1 1008.0 0.0
11/09:00pm 29.4 35.7 26.0 82 2.4 WSW 4 9 2 5 1007.7 1007.6 0.0
11/08:30pm 29.6 35.4 25.8 80 2.7 W 6 13 3 7 1007.2 1007.1 0.0
11/08:00pm 29.8 35.6 25.8 79 2.8 W 6 11 3 6 1006.6 1006.5 0.0
11/07:30pm 30.1 35.5 25.4 76 3.3 W 7 13 4 7 1006.3 1006.2 0.0
11/07:00pm 30.6 36.2 25.7 75 3.5 W 7 15 4 8 1005.8 1005.7 0.0
11/06:30pm 31.2 36.0 25.1 70 4.3 W 9 22 5 12 1005.4 1005.3 0.0
11/06:00pm 32.2 37.8 25.8 69 4.6 W 7 17 4 9 1005.0 1004.9 0.0
11/05:30pm 32.3 36.8 24.6 64 5.4 W 9 22 5 12 1004.9 1004.8 0.0
11/05:00pm 32.7 38.0 25.8 67 4.9 W 9 19 5 10 1004.3 1004.2 0.0
11/04:30pm 33.0 38.3 25.8 66 5.2 W 9 19 5 10 1004.5 1004.4 0.0
11/04:00pm 33.3 38.9 26.3 66 5.0 WNW 9 20 5 11 1004.5 1004.4 0.0
11/03:30pm 32.9 37.5 25.9 66 5.0 WNW 13 26 7 14 1004.7 1004.6 0.0
11/03:00pm 31.7 36.4 25.5 69 4.4 W 11 24 6 13 1004.6 1004.5 0.0
11/02:30pm 32.6 37.9 25.9 68 4.8 WNW 9 20 5 11 1004.9 1004.8 0.0
11/02:00pm 32.1 37.3 25.7 69 4.6 WNW 9 26 5 14 1005.2 1005.1 0.0
11/01:30pm 32.9 38.2 25.9 66 5.0 W 9 20 5 11 1005.7 1005.6 0.0
11/01:00pm 32.1 38.1 26.4 72 4.1 WNW 7 22 4 12 1006.3 1006.2 0.0
11/12:30pm 31.9 37.1 25.7 69 4.4 W 9 19 5 10 1006.6 1006.5 0.0
11/12:00pm 33.3 39.5 26.6 68 4.8 W 7 19 4 10 1007.0 1006.9 0.0
11/11:30am 32.8 39.0 26.4 69 4.6 WNW 6 13 3 7 1007.4 1007.3 0.0
11/11:00am 32.5 38.5 26.1 69 4.6 WNW 6 11 3 6 1007.7 1007.6 0.0
11/10:30am 31.7 36.9 25.1 68 4.7 SW 7 13 4 7 1008.0 1007.9 0.0
11/10:00am 31.3 37.0 25.6 71 4.0 SW 6 11 3 6 1008.4 1008.3 0.0
11/09:30am 30.2 34.5 23.6 67 4.6 SW 7 9 4 5 1008.4 1008.3 0.0
11/09:00am 29.7 35.9 26.3 82 2.4 WNW 6 11 3 6 1007.9 1007.8 1.4
11/08:30am 29.1 35.6 26.3 85 2.0 WSW 4 9 2 5 1008.2 1008.1 1.4
11/08:00am 29.4 36.0 26.4 84 2.1 W 4 9 2 5 1008.1 1008.0 0.6
11/07:30am 28.5 35.5 26.5 89 1.4 WSW 2 6 1 3 1007.8 1007.7 0.6
11/07:00am 27.5 34.3 26.1 92 1.0 WSW 2 6 1 3 1007.6 1007.5 0.6
11/06:30am 27.1 33.9 25.5 91 1.1 CALM 0 4 0 2 1007.1 1007.0 0.6
11/06:00am 27.4 34.1 25.4 89 1.4 CALM 0 4 0 2 1006.8 1006.7 0.6
11/05:30am 27.8 33.9 25.6 88 1.6 WSW 4 6 2 3 1006.8 1006.7 0.6
11/05:00am 27.8 34.4 25.8 89 1.4 WSW 2 7 1 4 1006.7 1006.6 0.6
11/04:30am 28.1 34.0 25.9 88 1.6 NW 6 13 3 7 1006.4 1006.3 0.6
11/04:00am 27.5 33.4 25.9 91 1.1 NW 6 11 3 6 1006.2 1006.1 0.6
11/03:30am 27.4 33.9 25.6 90 1.3 WSW 2 7 1 4 1006.6 1006.5 0.6
11/03:00am 27.3 33.3 25.5 90 1.3 SSW 4 6 2 3 1007.0 1006.9 0.6
11/02:30am 27.5 33.8 25.3 88 1.5 SW 2 4 1 2 1006.9 1006.8 0.6
11/02:00am 27.6 33.8 25.2 87 1.7 WSW 2 6 1 3 1007.0 1006.9 0.6
11/01:30am 28.1 34.6 25.7 87 1.7 SW 2 4 1 2 1007.5 1007.4 0.6
11/01:00am 28.3 34.3 25.5 85 2.0 WNW 4 7 2 4 1007.5 1007.4 0.6
11/12:30am 28.4 34.7 25.4 84 2.1 NW 2 6 1 3 1007.7 1007.6 0.6
11/12:00am 28.8 34.7 25.4 82 2.4 WNW 4 7 2 4 1008.0 1007.9 0.6
 
Date/Time
CST
Tmp

°C
App
Tmp
°C
Dew
Point
°C
Rel
Hum
%
Delta-T

°C
Wind Press
QNH
hPa
Press
MSL
hPa
Rain
since
9 am
mm
Dir
 
Spd
km/h
Gust
km/h
Spd
kts
Gust
kts
10/11:30pm 28.0 34.1 25.6 87 1.7 NW 4 9 2 5 1008.2 1008.1 0.6
10/11:00pm 27.9 34.6 25.9 89 1.4 NNW 2 6 1 3 1008.2 1008.1 0.6
10/10:30pm 28.5 35.3 26.1 87 1.7 W 2 6 1 3 1008.1 1008.0 0.6
10/10:00pm 28.9 35.4 26.3 86 1.9 WNW 4 6 2 3 1007.8 1007.7 0.6
10/09:30pm 29.0 35.6 26.4 86 1.9 WNW 4 9 2 5 1007.9 1007.8 0.6
10/09:00pm 29.0 35.5 25.6 82 2.4 WNW 2 7 1 4 1007.8 1007.7 0.6
10/08:30pm 29.3 35.2 25.3 79 2.8 WSW 4 6 2 3 1007.5 1007.4 0.6
10/08:00pm 29.5 35.4 25.3 78 3.0 W 4 9 2 5 1007.3 1007.2 0.6
10/07:30pm 29.8 35.4 24.9 75 3.4 WNW 4 7 2 4 1006.8 1006.7 0.6
10/07:00pm 30.1 35.5 25.2 75 3.5 NW 6 9 3 5 1006.2 1006.1 0.6
10/06:30pm 30.0 35.6 24.9 74 3.6 NW 4 9 2 5 1006.1 1006.0 0.6
10/06:00pm 28.8 34.2 25.2 81 2.5 NNE 6 11 3 6 1006.2 1006.1 0.6
10/05:30pm 27.5 30.6 24.1 82 2.4 NE 15 22 8 12 1005.9 1005.8 0.6
10/05:00pm 31.5 37.0 25.6 71 4.2 WNW 7 15 4 8 1005.7 1005.6 0.0
10/04:30pm 33.6 39.3 25.6 63 5.7 WNW 6 13 3 7 1005.2 1005.1 0.0
10/04:00pm 33.4 38.5 25.6 63 5.6 NW 9 20 5 11 1005.3 1005.2 0.0
10/03:30pm 33.1 38.1 24.8 61 5.9 NW 7 17 4 9 1005.3 1005.2 0.0
10/03:00pm 33.7 38.7 24.8 59 6.3 WNW 7 15 4 8 1005.3 1005.2 0.0
10/02:30pm 33.3 37.9 24.2 59 6.4 W 7 17 4 9 1005.7 1005.6 0.0
10/02:00pm 34.2 39.3 25.0 58 6.5 W 7 13 4 7 1005.9 1005.8 0.0
10/01:30pm 33.8 38.2 23.5 55 7.2 WNW 6 15 3 8 1006.6 1006.5 0.0
10/01:00pm 33.6 38.7 25.0 60 6.1 W 7 15 4 8 1007.0 1006.9 0.0
10/12:30pm 33.8 37.8 23.8 56 7.0 NW 9 15 5 8 1007.2 1007.1 0.0

Latest Capital City Observations: Canberra | Sydney | Melbourne | Brisbane | Adelaide | Perth | Hobart | Darwin

Other Formats:

Comma delimited format used in spreadsheet applications
http://www.bom.gov.au/fwo/IDD60901/IDD60901.94119.axf

JavaScript Object Notation format (JSON) in row-major order
http://www.bom.gov.au/fwo/IDD60901/IDD60901.94119.json